sensor_id;sensor_type;location;lat;lon;timestamp;P1;durP1;ratioP1;P2;durP2;ratioP2
21820;SDS011;11073;48.586;12.066;2022-07-21T00:00:20;7.63;;;3.60;;
21820;SDS011;11073;48.586;12.066;2022-07-21T00:02:50;5.63;;;3.40;;
21820;SDS011;11073;48.586;12.066;2022-07-21T00:05:20;5.75;;;3.45;;
21820;SDS011;11073;48.586;12.066;2022-07-21T00:07:54;6.93;;;3.30;;
21820;SDS011;11073;48.586;12.066;2022-07-21T00:10:42;4.07;;;3.63;;
21820;SDS011;11073;48.586;12.066;2022-07-21T00:13:11;4.10;;;3.75;;
21820;SDS011;11073;48.586;12.066;2022-07-21T00:15:40;6.63;;;3.47;;
21820;SDS011;11073;48.586;12.066;2022-07-21T00:18:09;8.13;;;3.35;;
21820;SDS011;11073;48.586;12.066;2022-07-21T00:20:39;5.75;;;3.72;;
21820;SDS011;11073;48.586;12.066;2022-07-21T00:23:09;9.07;;;3.60;;
21820;SDS011;11073;48.586;12.066;2022-07-21T00:25:38;7.25;;;4.13;;
21820;SDS011;11073;48.586;12.066;2022-07-21T00:28:07;7.15;;;3.60;;
21820;SDS011;11073;48.586;12.066;2022-07-21T00:30:36;4.88;;;3.85;;
21820;SDS011;11073;48.586;12.066;2022-07-21T00:33:05;3.97;;;3.45;;
21820;SDS011;11073;48.586;12.066;2022-07-21T00:35:33;4.57;;;3.35;;
21820;SDS011;11073;48.586;12.066;2022-07-21T00:38:02;5.82;;;3.33;;
21820;SDS011;11073;48.586;12.066;2022-07-21T00:40:33;4.13;;;3.17;;
21820;SDS011;11073;48.586;12.066;2022-07-21T00:43:02;5.63;;;3.13;;
21820;SDS011;11073;48.586;12.066;2022-07-21T00:45:31;5.72;;;3.65;;
21820;SDS011;11073;48.586;12.066;2022-07-21T00:48:00;5.45;;;3.92;;
21820;SDS011;11073;48.586;12.066;2022-07-21T00:50:29;5.38;;;3.45;;
21820;SDS011;11073;48.586;12.066;2022-07-21T00:53:00;5.43;;;3.50;;
21820;SDS011;11073;48.586;12.066;2022-07-21T00:55:29;4.13;;;3.50;;
21820;SDS011;11073;48.586;12.066;2022-07-21T00:57:59;4.90;;;3.63;;
21820;SDS011;11073;48.586;12.066;2022-07-21T01:00:29;4.47;;;3.13;;
21820;SDS011;11073;48.586;12.066;2022-07-21T01:03:05;4.93;;;3.40;;
21820;SDS011;11073;48.586;12.066;2022-07-21T01:05:34;4.43;;;3.25;;
21820;SDS011;11073;48.586;12.066;2022-07-21T01:08:03;5.20;;;3.30;;
21820;SDS011;11073;48.586;12.066;2022-07-21T01:10:33;6.93;;;3.50;;
21820;SDS011;11073;48.586;12.066;2022-07-21T01:13:03;6.40;;;3.67;;
21820;SDS011;11073;48.586;12.066;2022-07-21T01:15:32;4.28;;;3.28;;
21820;SDS011;11073;48.586;12.066;2022-07-21T01:18:01;3.47;;;3.17;;
21820;SDS011;11073;48.586;12.066;2022-07-21T01:20:32;4.18;;;3.15;;
21820;SDS011;11073;48.586;12.066;2022-07-21T01:23:04;4.13;;;3.30;;
21820;SDS011;11073;48.586;12.066;2022-07-21T01:25:33;4.47;;;3.50;;
21820;SDS011;11073;48.586;12.066;2022-07-21T01:28:02;5.78;;;3.50;;
21820;SDS011;11073;48.586;12.066;2022-07-21T01:30:31;4.38;;;3.45;;
21820;SDS011;11073;48.586;12.066;2022-07-21T01:33:00;4.60;;;3.35;;
21820;SDS011;11073;48.586;12.066;2022-07-21T01:35:29;3.40;;;3.10;;
21820;SDS011;11073;48.586;12.066;2022-07-21T01:37:58;4.47;;;3.67;;
21820;SDS011;11073;48.586;12.066;2022-07-21T01:40:29;5.10;;;3.50;;
21820;SDS011;11073;48.586;12.066;2022-07-21T01:43:31;7.00;;;3.47;;
21820;SDS011;11073;48.586;12.066;2022-07-21T01:45:59;4.35;;;3.63;;
21820;SDS011;11073;48.586;12.066;2022-07-21T01:48:29;4.57;;;3.47;;
21820;SDS011;11073;48.586;12.066;2022-07-21T01:50:58;4.70;;;3.50;;
21820;SDS011;11073;48.586;12.066;2022-07-21T01:53:26;6.35;;;3.65;;
21820;SDS011;11073;48.586;12.066;2022-07-21T01:55:56;3.70;;;3.33;;
21820;SDS011;11073;48.586;12.066;2022-07-21T01:58:25;5.28;;;3.50;;
21820;SDS011;11073;48.586;12.066;2022-07-21T02:00:54;3.92;;;3.55;;
21820;SDS011;11073;48.586;12.066;2022-07-21T02:03:23;4.63;;;3.28;;
21820;SDS011;11073;48.586;12.066;2022-07-21T02:05:51;5.05;;;3.90;;
21820;SDS011;11073;48.586;12.066;2022-07-21T02:08:20;5.20;;;3.28;;
21820;SDS011;11073;48.586;12.066;2022-07-21T02:10:49;3.90;;;3.10;;
21820;SDS011;11073;48.586;12.066;2022-07-21T02:13:19;7.82;;;3.63;;
21820;SDS011;11073;48.586;12.066;2022-07-21T02:15:48;4.65;;;4.18;;
21820;SDS011;11073;48.586;12.066;2022-07-21T02:18:16;5.93;;;3.58;;
21820;SDS011;11073;48.586;12.066;2022-07-21T02:20:46;4.15;;;3.38;;
21820;SDS011;11073;48.586;12.066;2022-07-21T02:23:15;3.65;;;3.30;;
21820;SDS011;11073;48.586;12.066;2022-07-21T02:25:44;3.83;;;3.33;;
21820;SDS011;11073;48.586;12.066;2022-07-21T02:28:13;5.32;;;3.45;;
21820;SDS011;11073;48.586;12.066;2022-07-21T02:30:43;5.20;;;3.90;;
21820;SDS011;11073;48.586;12.066;2022-07-21T02:33:13;7.60;;;3.72;;
21820;SDS011;11073;48.586;12.066;2022-07-21T02:35:42;5.30;;;3.10;;
21820;SDS011;11073;48.586;12.066;2022-07-21T02:38:11;4.85;;;3.60;;
21820;SDS011;11073;48.586;12.066;2022-07-21T02:40:40;5.20;;;4.03;;
21820;SDS011;11073;48.586;12.066;2022-07-21T02:43:09;4.30;;;3.60;;
21820;SDS011;11073;48.586;12.066;2022-07-21T02:45:38;4.35;;;3.50;;
21820;SDS011;11073;48.586;12.066;2022-07-21T02:48:11;4.93;;;3.75;;
21820;SDS011;11073;48.586;12.066;2022-07-21T02:50:41;4.95;;;3.55;;
21820;SDS011;11073;48.586;12.066;2022-07-21T02:53:12;4.63;;;3.38;;
21820;SDS011;11073;48.586;12.066;2022-07-21T02:55:45;4.63;;;3.72;;
21820;SDS011;11073;48.586;12.066;2022-07-21T02:58:15;6.30;;;3.88;;
21820;SDS011;11073;48.586;12.066;2022-07-21T03:00:49;4.82;;;3.50;;
21820;SDS011;11073;48.586;12.066;2022-07-21T03:03:22;3.88;;;3.47;;
21820;SDS011;11073;48.586;12.066;2022-07-21T03:05:53;4.38;;;3.60;;
21820;SDS011;11073;48.586;12.066;2022-07-21T03:08:22;5.53;;;3.80;;
21820;SDS011;11073;48.586;12.066;2022-07-21T03:10:52;5.18;;;3.60;;
21820;SDS011;11073;48.586;12.066;2022-07-21T03:13:21;3.47;;;3.17;;
21820;SDS011;11073;48.586;12.066;2022-07-21T03:15:49;5.10;;;3.72;;
21820;SDS011;11073;48.586;12.066;2022-07-21T03:18:18;4.82;;;3.75;;
21820;SDS011;11073;48.586;12.066;2022-07-21T03:20:48;4.70;;;3.75;;
21820;SDS011;11073;48.586;12.066;2022-07-21T03:23:18;3.97;;;3.55;;
21820;SDS011;11073;48.586;12.066;2022-07-21T03:25:47;4.47;;;3.80;;
21820;SDS011;11073;48.586;12.066;2022-07-21T03:28:16;5.13;;;3.92;;
21820;SDS011;11073;48.586;12.066;2022-07-21T03:30:45;5.05;;;4.05;;
21820;SDS011;11073;48.586;12.066;2022-07-21T03:33:14;4.70;;;4.25;;
21820;SDS011;11073;48.586;12.066;2022-07-21T03:35:43;6.68;;;4.10;;
21820;SDS011;11073;48.586;12.066;2022-07-21T03:38:13;4.43;;;3.88;;
21820;SDS011;11073;48.586;12.066;2022-07-21T03:40:42;6.10;;;3.72;;
21820;SDS011;11073;48.586;12.066;2022-07-21T03:43:11;4.32;;;3.92;;
21820;SDS011;11073;48.586;12.066;2022-07-21T03:45:40;5.60;;;3.90;;
21820;SDS011;11073;48.586;12.066;2022-07-21T03:48:09;4.80;;;3.60;;
21820;SDS011;11073;48.586;12.066;2022-07-21T03:50:39;6.40;;;4.10;;
21820;SDS011;11073;48.586;12.066;2022-07-21T03:53:09;4.20;;;3.80;;
21820;SDS011;11073;48.586;12.066;2022-07-21T03:55:40;4.60;;;3.72;;
21820;SDS011;11073;48.586;12.066;2022-07-21T03:58:08;4.25;;;3.50;;
21820;SDS011;11073;48.586;12.066;2022-07-21T04:00:38;5.43;;;3.83;;
21820;SDS011;11073;48.586;12.066;2022-07-21T04:03:09;6.57;;;4.45;;
21820;SDS011;11073;48.586;12.066;2022-07-21T04:05:39;4.75;;;3.67;;
21820;SDS011;11073;48.586;12.066;2022-07-21T04:08:10;6.60;;;4.10;;
21820;SDS011;11073;48.586;12.066;2022-07-21T04:10:42;4.80;;;4.38;;
21820;SDS011;11073;48.586;12.066;2022-07-21T04:13:13;6.00;;;4.32;;
21820;SDS011;11073;48.586;12.066;2022-07-21T04:15:42;6.82;;;4.43;;
21820;SDS011;11073;48.586;12.066;2022-07-21T04:18:11;5.30;;;4.47;;
21820;SDS011;11073;48.586;12.066;2022-07-21T04:20:40;5.85;;;4.35;;
21820;SDS011;11073;48.586;12.066;2022-07-21T04:23:09;4.47;;;3.95;;
21820;SDS011;11073;48.586;12.066;2022-07-21T04:25:37;6.25;;;3.88;;
21820;SDS011;11073;48.586;12.066;2022-07-21T04:28:07;5.20;;;4.13;;
21820;SDS011;11073;48.586;12.066;2022-07-21T04:30:38;5.45;;;4.32;;
21820;SDS011;11073;48.586;12.066;2022-07-21T04:33:07;4.65;;;4.25;;
21820;SDS011;11073;48.586;12.066;2022-07-21T04:35:36;6.50;;;4.13;;
21820;SDS011;11073;48.586;12.066;2022-07-21T04:38:05;5.60;;;3.95;;
21820;SDS011;11073;48.586;12.066;2022-07-21T04:40:35;5.38;;;4.60;;
21820;SDS011;11073;48.586;12.066;2022-07-21T04:43:04;6.97;;;5.03;;
21820;SDS011;11073;48.586;12.066;2022-07-21T04:45:35;8.45;;;4.90;;
21820;SDS011;11073;48.586;12.066;2022-07-21T04:48:04;5.47;;;4.47;;
21820;SDS011;11073;48.586;12.066;2022-07-21T04:50:33;7.28;;;5.38;;
21820;SDS011;11073;48.586;12.066;2022-07-21T04:53:02;7.32;;;5.13;;
21820;SDS011;11073;48.586;12.066;2022-07-21T04:55:31;7.88;;;5.47;;
21820;SDS011;11073;48.586;12.066;2022-07-21T04:58:00;7.80;;;5.00;;
21820;SDS011;11073;48.586;12.066;2022-07-21T05:00:28;10.30;;;5.40;;
21820;SDS011;11073;48.586;12.066;2022-07-21T05:02:59;8.02;;;6.00;;
21820;SDS011;11073;48.586;12.066;2022-07-21T05:05:28;7.53;;;5.07;;
21820;SDS011;11073;48.586;12.066;2022-07-21T05:07:56;8.90;;;5.55;;
21820;SDS011;11073;48.586;12.066;2022-07-21T05:10:26;6.22;;;5.63;;
21820;SDS011;11073;48.586;12.066;2022-07-21T05:12:54;6.85;;;5.55;;
21820;SDS011;11073;48.586;12.066;2022-07-21T05:15:23;9.68;;;6.03;;
21820;SDS011;11073;48.586;12.066;2022-07-21T05:17:51;8.75;;;6.28;;
21820;SDS011;11073;48.586;12.066;2022-07-21T05:20:22;8.52;;;6.38;;
21820;SDS011;11073;48.586;12.066;2022-07-21T05:22:50;7.57;;;6.90;;
21820;SDS011;11073;48.586;12.066;2022-07-21T05:25:19;9.75;;;6.60;;
21820;SDS011;11073;48.586;12.066;2022-07-21T05:27:47;7.28;;;6.43;;
21820;SDS011;11073;48.586;12.066;2022-07-21T05:30:16;7.28;;;6.57;;
21820;SDS011;11073;48.586;12.066;2022-07-21T05:32:45;10.73;;;7.72;;
21820;SDS011;11073;48.586;12.066;2022-07-21T05:35:15;9.45;;;7.72;;
21820;SDS011;11073;48.586;12.066;2022-07-21T05:37:45;9.45;;;7.82;;
21820;SDS011;11073;48.586;12.066;2022-07-21T05:40:14;8.52;;;7.22;;
21820;SDS011;11073;48.586;12.066;2022-07-21T05:42:43;10.63;;;7.80;;
21820;SDS011;11073;48.586;12.066;2022-07-21T05:45:12;9.20;;;8.30;;
21820;SDS011;11073;48.586;12.066;2022-07-21T05:47:41;9.68;;;8.68;;
21820;SDS011;11073;48.586;12.066;2022-07-21T05:50:11;9.32;;;8.43;;
21820;SDS011;11073;48.586;12.066;2022-07-21T05:52:40;9.52;;;8.45;;
21820;SDS011;11073;48.586;12.066;2022-07-21T05:55:10;9.05;;;8.15;;
21820;SDS011;11073;48.586;12.066;2022-07-21T05:57:40;8.32;;;7.25;;
21820;SDS011;11073;48.586;12.066;2022-07-21T06:00:13;9.73;;;7.57;;
21820;SDS011;11073;48.586;12.066;2022-07-21T06:02:43;8.02;;;7.32;;
21820;SDS011;11073;48.586;12.066;2022-07-21T06:05:11;7.97;;;6.85;;
21820;SDS011;11073;48.586;12.066;2022-07-21T06:07:40;9.25;;;7.32;;
21820;SDS011;11073;48.586;12.066;2022-07-21T06:10:10;7.15;;;6.45;;
21820;SDS011;11073;48.586;12.066;2022-07-21T06:12:42;7.35;;;6.55;;
21820;SDS011;11073;48.586;12.066;2022-07-21T06:15:12;7.93;;;7.22;;
21820;SDS011;11073;48.586;12.066;2022-07-21T06:17:42;7.93;;;7.07;;
21820;SDS011;11073;48.586;12.066;2022-07-21T06:20:12;9.88;;;8.10;;
21820;SDS011;11073;48.586;12.066;2022-07-21T06:22:42;8.50;;;7.70;;
21820;SDS011;11073;48.586;12.066;2022-07-21T06:25:12;9.25;;;8.25;;
21820;SDS011;11073;48.586;12.066;2022-07-21T06:27:40;8.98;;;8.18;;
21820;SDS011;11073;48.586;12.066;2022-07-21T06:30:09;9.60;;;7.95;;
21820;SDS011;11073;48.586;12.066;2022-07-21T06:32:38;9.32;;;7.93;;
21820;SDS011;11073;48.586;12.066;2022-07-21T06:35:07;9.75;;;8.65;;
21820;SDS011;11073;48.586;12.066;2022-07-21T06:37:37;9.77;;;8.52;;
21820;SDS011;11073;48.586;12.066;2022-07-21T06:40:06;9.68;;;8.82;;
21820;SDS011;11073;48.586;12.066;2022-07-21T06:42:37;9.77;;;8.77;;
21820;SDS011;11073;48.586;12.066;2022-07-21T06:45:26;8.27;;;7.45;;
21820;SDS011;11073;48.586;12.066;2022-07-21T06:47:59;10.43;;;9.43;;
21820;SDS011;11073;48.586;12.066;2022-07-21T06:50:28;9.68;;;8.70;;
21820;SDS011;11073;48.586;12.066;2022-07-21T06:52:57;9.52;;;8.52;;
21820;SDS011;11073;48.586;12.066;2022-07-21T06:55:26;11.00;;;9.23;;
21820;SDS011;11073;48.586;12.066;2022-07-21T06:57:57;9.30;;;8.48;;
21820;SDS011;11073;48.586;12.066;2022-07-21T07:00:25;11.23;;;8.27;;
21820;SDS011;11073;48.586;12.066;2022-07-21T07:02:54;9.32;;;8.35;;
21820;SDS011;11073;48.586;12.066;2022-07-21T07:05:22;9.77;;;8.73;;
21820;SDS011;11073;48.586;12.066;2022-07-21T07:07:55;9.25;;;8.32;;
21820;SDS011;11073;48.586;12.066;2022-07-21T07:10:24;10.00;;;8.80;;
21820;SDS011;11073;48.586;12.066;2022-07-21T07:12:53;7.93;;;7.22;;
21820;SDS011;11073;48.586;12.066;2022-07-21T07:15:43;8.63;;;7.78;;
21820;SDS011;11073;48.586;12.066;2022-07-21T07:18:12;8.90;;;8.00;;
21820;SDS011;11073;48.586;12.066;2022-07-21T07:20:41;8.75;;;7.93;;
21820;SDS011;11073;48.586;12.066;2022-07-21T07:23:11;8.88;;;7.65;;
21820;SDS011;11073;48.586;12.066;2022-07-21T07:25:39;9.93;;;8.10;;
21820;SDS011;11073;48.586;12.066;2022-07-21T07:28:08;9.07;;;7.07;;
21820;SDS011;11073;48.586;12.066;2022-07-21T07:30:37;8.30;;;7.57;;
21820;SDS011;11073;48.586;12.066;2022-07-21T07:33:07;9.00;;;8.20;;
21820;SDS011;11073;48.586;12.066;2022-07-21T07:35:36;7.75;;;7.00;;
21820;SDS011;11073;48.586;12.066;2022-07-21T07:38:05;9.65;;;7.20;;
21820;SDS011;11073;48.586;12.066;2022-07-21T07:40:33;7.97;;;7.28;;
21820;SDS011;11073;48.586;12.066;2022-07-21T07:43:03;8.70;;;7.85;;
21820;SDS011;11073;48.586;12.066;2022-07-21T07:45:34;9.18;;;7.97;;
21820;SDS011;11073;48.586;12.066;2022-07-21T07:48:03;7.63;;;6.85;;
21820;SDS011;11073;48.586;12.066;2022-07-21T07:50:33;7.68;;;6.97;;
21820;SDS011;11073;48.586;12.066;2022-07-21T07:53:02;8.45;;;7.60;;
21820;SDS011;11073;48.586;12.066;2022-07-21T07:55:31;7.95;;;7.25;;
21820;SDS011;11073;48.586;12.066;2022-07-21T07:58:00;7.15;;;6.43;;
21820;SDS011;11073;48.586;12.066;2022-07-21T08:00:29;8.18;;;7.38;;
21820;SDS011;11073;48.586;12.066;2022-07-21T08:03:18;9.75;;;8.77;;
21820;SDS011;11073;48.586;12.066;2022-07-21T08:05:48;10.38;;;9.27;;
21820;SDS011;11073;48.586;12.066;2022-07-21T08:08:17;9.85;;;8.95;;
21820;SDS011;11073;48.586;12.066;2022-07-21T08:10:46;11.27;;;9.85;;
21820;SDS011;11073;48.586;12.066;2022-07-21T08:13:15;11.73;;;10.65;;
21820;SDS011;11073;48.586;12.066;2022-07-21T08:15:45;12.35;;;11.15;;
21820;SDS011;11073;48.586;12.066;2022-07-21T08:18:17;14.20;;;12.57;;
21820;SDS011;11073;48.586;12.066;2022-07-21T08:20:46;12.82;;;11.50;;
21820;SDS011;11073;48.586;12.066;2022-07-21T08:23:17;11.77;;;10.68;;
21820;SDS011;11073;48.586;12.066;2022-07-21T08:25:45;13.25;;;11.95;;
21820;SDS011;11073;48.586;12.066;2022-07-21T08:28:14;12.88;;;11.68;;
21820;SDS011;11073;48.586;12.066;2022-07-21T08:30:42;12.50;;;11.32;;
21820;SDS011;11073;48.586;12.066;2022-07-21T08:33:11;12.23;;;11.02;;
21820;SDS011;11073;48.586;12.066;2022-07-21T08:35:39;11.73;;;10.48;;
21820;SDS011;11073;48.586;12.066;2022-07-21T08:38:08;11.20;;;10.20;;
21820;SDS011;11073;48.586;12.066;2022-07-21T08:40:40;10.70;;;9.63;;
21820;SDS011;11073;48.586;12.066;2022-07-21T08:43:10;10.93;;;10.02;;
21820;SDS011;11073;48.586;12.066;2022-07-21T08:45:41;10.52;;;9.52;;
21820;SDS011;11073;48.586;12.066;2022-07-21T08:48:10;10.80;;;9.70;;
21820;SDS011;11073;48.586;12.066;2022-07-21T08:50:41;10.38;;;9.38;;
21820;SDS011;11073;48.586;12.066;2022-07-21T08:53:09;11.02;;;9.93;;
21820;SDS011;11073;48.586;12.066;2022-07-21T08:55:40;9.82;;;8.73;;
21820;SDS011;11073;48.586;12.066;2022-07-21T08:58:09;10.73;;;9.73;;
21820;SDS011;11073;48.586;12.066;2022-07-21T09:00:40;9.85;;;9.02;;
21820;SDS011;11073;48.586;12.066;2022-07-21T09:03:15;10.02;;;9.13;;
21820;SDS011;11073;48.586;12.066;2022-07-21T09:05:58;10.13;;;9.13;;
21820;SDS011;11073;48.586;12.066;2022-07-21T09:08:30;9.95;;;9.02;;
21820;SDS011;11073;48.586;12.066;2022-07-21T09:11:17;9.48;;;8.57;;
21820;SDS011;11073;48.586;12.066;2022-07-21T09:13:48;9.98;;;8.55;;
21820;SDS011;11073;48.586;12.066;2022-07-21T09:16:32;9.57;;;8.68;;
21820;SDS011;11073;48.586;12.066;2022-07-21T09:19:03;9.13;;;8.20;;
21820;SDS011;11073;48.586;12.066;2022-07-21T09:21:33;9.73;;;8.82;;
21820;SDS011;11073;48.586;12.066;2022-07-21T09:24:19;9.35;;;8.52;;
21820;SDS011;11073;48.586;12.066;2022-07-21T09:26:57;9.68;;;8.68;;
21820;SDS011;11073;48.586;12.066;2022-07-21T09:29:33;8.80;;;7.85;;
21820;SDS011;11073;48.586;12.066;2022-07-21T09:32:23;8.80;;;7.45;;
21820;SDS011;11073;48.586;12.066;2022-07-21T09:34:53;7.72;;;7.03;;
21820;SDS011;11073;48.586;12.066;2022-07-21T09:37:23;9.25;;;7.28;;
21820;SDS011;11073;48.586;12.066;2022-07-21T09:39:52;9.50;;;7.85;;
21820;SDS011;11073;48.586;12.066;2022-07-21T09:42:25;9.60;;;7.88;;
21820;SDS011;11073;48.586;12.066;2022-07-21T09:44:55;8.23;;;7.43;;
21820;SDS011;11073;48.586;12.066;2022-07-21T09:47:27;8.70;;;7.95;;
21820;SDS011;11073;48.586;12.066;2022-07-21T09:49:57;8.75;;;7.85;;
21820;SDS011;11073;48.586;12.066;2022-07-21T09:52:47;9.95;;;8.68;;
21820;SDS011;11073;48.586;12.066;2022-07-21T09:55:16;9.35;;;8.45;;
21820;SDS011;11073;48.586;12.066;2022-07-21T09:57:47;10.75;;;8.63;;
21820;SDS011;11073;48.586;12.066;2022-07-21T10:00:16;8.85;;;8.05;;
21820;SDS011;11073;48.586;12.066;2022-07-21T10:02:48;8.90;;;8.00;;
21820;SDS011;11073;48.586;12.066;2022-07-21T10:05:18;8.95;;;8.02;;
21820;SDS011;11073;48.586;12.066;2022-07-21T10:07:57;9.52;;;8.63;;
21820;SDS011;11073;48.586;12.066;2022-07-21T10:10:28;9.48;;;8.57;;
21820;SDS011;11073;48.586;12.066;2022-07-21T10:13:19;9.98;;;8.57;;
21820;SDS011;11073;48.586;12.066;2022-07-21T10:15:47;9.90;;;9.00;;
21820;SDS011;11073;48.586;12.066;2022-07-21T10:18:17;10.88;;;9.77;;
21820;SDS011;11073;48.586;12.066;2022-07-21T10:20:48;11.23;;;10.10;;
21820;SDS011;11073;48.586;12.066;2022-07-21T10:23:27;10.75;;;9.75;;
21820;SDS011;11073;48.586;12.066;2022-07-21T10:26:03;10.18;;;9.27;;
21820;SDS011;11073;48.586;12.066;2022-07-21T10:28:35;10.10;;;9.20;;
21820;SDS011;11073;48.586;12.066;2022-07-21T10:31:12;11.95;;;10.77;;
21820;SDS011;11073;48.586;12.066;2022-07-21T10:36:42;11.15;;;10.05;;
21820;SDS011;11073;48.586;12.066;2022-07-21T10:39:12;11.45;;;10.43;;
21820;SDS011;11073;48.586;12.066;2022-07-21T10:41:46;13.45;;;12.32;;
21820;SDS011;11073;48.586;12.066;2022-07-21T10:47:09;11.65;;;10.55;;
21820;SDS011;11073;48.586;12.066;2022-07-21T10:49:43;12.50;;;11.23;;
21820;SDS011;11073;48.586;12.066;2022-07-21T10:55:20;14.18;;;12.60;;
21820;SDS011;11073;48.586;12.066;2022-07-21T10:58:10;13.68;;;12.27;;
21820;SDS011;11073;48.586;12.066;2022-07-21T11:00:46;13.50;;;12.13;;
21820;SDS011;11073;48.586;12.066;2022-07-21T11:03:18;12.65;;;11.52;;
21820;SDS011;11073;48.586;12.066;2022-07-21T11:09:08;15.50;;;11.82;;
21820;SDS011;11073;48.586;12.066;2022-07-21T11:11:39;12.77;;;11.55;;
21820;SDS011;11073;48.586;12.066;2022-07-21T11:14:34;12.13;;;10.98;;
21820;SDS011;11073;48.586;12.066;2022-07-21T11:17:05;12.38;;;11.18;;
21820;SDS011;11073;48.586;12.066;2022-07-21T11:19:36;11.85;;;10.70;;
21820;SDS011;11073;48.586;12.066;2022-07-21T11:22:10;12.05;;;10.82;;
21820;SDS011;11073;48.586;12.066;2022-07-21T11:24:41;10.77;;;9.77;;
21820;SDS011;11073;48.586;12.066;2022-07-21T11:27:12;12.50;;;11.15;;
21820;SDS011;11073;48.586;12.066;2022-07-21T11:29:43;11.70;;;10.60;;
21820;SDS011;11073;48.586;12.066;2022-07-21T11:32:14;11.57;;;10.43;;
21820;SDS011;11073;48.586;12.066;2022-07-21T11:34:46;11.15;;;10.02;;
21820;SDS011;11073;48.586;12.066;2022-07-21T11:37:16;12.52;;;11.23;;
21820;SDS011;11073;48.586;12.066;2022-07-21T11:40:05;12.45;;;11.35;;
21820;SDS011;11073;48.586;12.066;2022-07-21T11:42:36;12.90;;;11.57;;
21820;SDS011;11073;48.586;12.066;2022-07-21T11:45:06;12.98;;;11.68;;
21820;SDS011;11073;48.586;12.066;2022-07-21T11:47:37;12.90;;;11.60;;
21820;SDS011;11073;48.586;12.066;2022-07-21T11:50:07;13.43;;;12.32;;
21820;SDS011;11073;48.586;12.066;2022-07-21T11:52:39;13.60;;;12.20;;
21820;SDS011;11073;48.586;12.066;2022-07-21T11:55:08;13.43;;;12.20;;
21820;SDS011;11073;48.586;12.066;2022-07-21T11:57:40;13.93;;;12.38;;
21820;SDS011;11073;48.586;12.066;2022-07-21T12:00:10;13.43;;;12.10;;
21820;SDS011;11073;48.586;12.066;2022-07-21T12:02:42;12.75;;;11.65;;
21820;SDS011;11073;48.586;12.066;2022-07-21T12:05:11;12.70;;;11.50;;
21820;SDS011;11073;48.586;12.066;2022-07-21T12:07:41;13.30;;;12.07;;
21820;SDS011;11073;48.586;12.066;2022-07-21T12:10:12;14.50;;;13.15;;
21820;SDS011;11073;48.586;12.066;2022-07-21T12:12:42;14.05;;;12.65;;
21820;SDS011;11073;48.586;12.066;2022-07-21T12:15:13;13.98;;;12.68;;
21820;SDS011;11073;48.586;12.066;2022-07-21T12:17:45;13.68;;;12.38;;
21820;SDS011;11073;48.586;12.066;2022-07-21T12:20:23;14.02;;;12.82;;
21820;SDS011;11073;48.586;12.066;2022-07-21T12:22:53;14.15;;;12.85;;
21820;SDS011;11073;48.586;12.066;2022-07-21T12:25:30;14.13;;;12.73;;
21820;SDS011;11073;48.586;12.066;2022-07-21T12:28:00;14.27;;;12.95;;
21820;SDS011;11073;48.586;12.066;2022-07-21T12:30:32;14.80;;;13.30;;
21820;SDS011;11073;48.586;12.066;2022-07-21T12:33:05;13.48;;;12.27;;
21820;SDS011;11073;48.586;12.066;2022-07-21T12:35:36;13.00;;;11.80;;
21820;SDS011;11073;48.586;12.066;2022-07-21T12:38:07;13.70;;;12.38;;
21820;SDS011;11073;48.586;12.066;2022-07-21T12:40:39;15.43;;;13.75;;
21820;SDS011;11073;48.586;12.066;2022-07-21T12:43:29;13.93;;;12.63;;
21820;SDS011;11073;48.586;12.066;2022-07-21T12:45:58;14.02;;;12.57;;
21820;SDS011;11073;48.586;12.066;2022-07-21T12:48:31;13.48;;;12.10;;
21820;SDS011;11073;48.586;12.066;2022-07-21T12:51:02;14.23;;;12.98;;
21820;SDS011;11073;48.586;12.066;2022-07-21T12:53:35;14.00;;;12.60;;
21820;SDS011;11073;48.586;12.066;2022-07-21T12:56:04;12.85;;;11.63;;
21820;SDS011;11073;48.586;12.066;2022-07-21T12:58:34;14.13;;;12.75;;
21820;SDS011;11073;48.586;12.066;2022-07-21T13:01:03;11.88;;;10.73;;
21820;SDS011;11073;48.586;12.066;2022-07-21T13:03:34;13.52;;;12.23;;
21820;SDS011;11073;48.586;12.066;2022-07-21T13:06:04;15.80;;;12.00;;
21820;SDS011;11073;48.586;12.066;2022-07-21T13:08:36;17.33;;;13.63;;
21820;SDS011;11073;48.586;12.066;2022-07-21T13:11:06;14.27;;;12.85;;
21820;SDS011;11073;48.586;12.066;2022-07-21T13:13:35;14.80;;;12.00;;
21820;SDS011;11073;48.586;12.066;2022-07-21T13:16:05;12.68;;;11.57;;
21820;SDS011;11073;48.586;12.066;2022-07-21T13:18:36;14.15;;;12.85;;
21820;SDS011;11073;48.586;12.066;2022-07-21T13:21:05;12.43;;;11.35;;
21820;SDS011;11073;48.586;12.066;2022-07-21T13:23:34;13.50;;;12.20;;
21820;SDS011;11073;48.586;12.066;2022-07-21T13:26:03;19.55;;;11.98;;
21820;SDS011;11073;48.586;12.066;2022-07-21T13:28:33;18.05;;;12.98;;
21820;SDS011;11073;48.586;12.066;2022-07-21T13:31:04;15.23;;;12.50;;
21820;SDS011;11073;48.586;12.066;2022-07-21T13:33:35;15.15;;;12.85;;
21820;SDS011;11073;48.586;12.066;2022-07-21T13:36:06;19.70;;;12.65;;
21820;SDS011;11073;48.586;12.066;2022-07-21T13:38:36;23.42;;;12.45;;
21820;SDS011;11073;48.586;12.066;2022-07-21T13:41:04;22.77;;;11.93;;
21820;SDS011;11073;48.586;12.066;2022-07-21T13:43:54;16.00;;;12.20;;
21820;SDS011;11073;48.586;12.066;2022-07-21T13:46:24;13.50;;;12.10;;
21820;SDS011;11073;48.586;12.066;2022-07-21T13:48:54;12.82;;;10.63;;
21820;SDS011;11073;48.586;12.066;2022-07-21T13:51:23;14.93;;;10.35;;
21820;SDS011;11073;48.586;12.066;2022-07-21T13:53:52;12.07;;;9.88;;
21820;SDS011;11073;48.586;12.066;2022-07-21T13:56:21;11.85;;;10.43;;
21820;SDS011;11073;48.586;12.066;2022-07-21T13:58:50;11.48;;;9.98;;
21820;SDS011;11073;48.586;12.066;2022-07-21T14:01:19;13.07;;;8.85;;
21820;SDS011;11073;48.586;12.066;2022-07-21T14:03:48;17.73;;;10.63;;
21820;SDS011;11073;48.586;12.066;2022-07-21T14:06:20;10.80;;;9.70;;
21820;SDS011;11073;48.586;12.066;2022-07-21T14:08:49;10.38;;;9.32;;
21820;SDS011;11073;48.586;12.066;2022-07-21T14:11:18;13.52;;;10.85;;
21820;SDS011;11073;48.586;12.066;2022-07-21T14:13:49;12.52;;;11.23;;
21820;SDS011;11073;48.586;12.066;2022-07-21T14:16:19;10.70;;;9.60;;
21820;SDS011;11073;48.586;12.066;2022-07-21T14:18:48;12.23;;;10.98;;
21820;SDS011;11073;48.586;12.066;2022-07-21T14:21:18;10.90;;;9.80;;
21820;SDS011;11073;48.586;12.066;2022-07-21T14:23:50;11.63;;;9.70;;
21820;SDS011;11073;48.586;12.066;2022-07-21T14:26:39;11.65;;;10.32;;
21820;SDS011;11073;48.586;12.066;2022-07-21T14:29:08;11.23;;;10.05;;
21820;SDS011;11073;48.586;12.066;2022-07-21T14:31:36;10.52;;;9.50;;
21820;SDS011;11073;48.586;12.066;2022-07-21T14:34:05;9.95;;;8.98;;
21820;SDS011;11073;48.586;12.066;2022-07-21T14:36:34;11.95;;;9.70;;
21820;SDS011;11073;48.586;12.066;2022-07-21T14:39:04;10.45;;;9.35;;
21820;SDS011;11073;48.586;12.066;2022-07-21T14:41:34;11.77;;;9.82;;
21820;SDS011;11073;48.586;12.066;2022-07-21T14:44:03;10.55;;;9.40;;
21820;SDS011;11073;48.586;12.066;2022-07-21T14:46:32;10.10;;;9.10;;
21820;SDS011;11073;48.586;12.066;2022-07-21T14:49:00;11.27;;;9.38;;
21820;SDS011;11073;48.586;12.066;2022-07-21T14:51:29;9.90;;;8.90;;
21820;SDS011;11073;48.586;12.066;2022-07-21T14:53:58;12.27;;;9.63;;
21820;SDS011;11073;48.586;12.066;2022-07-21T14:56:28;13.30;;;9.55;;
21820;SDS011;11073;48.586;12.066;2022-07-21T14:59:18;11.55;;;9.75;;